• Join FlightAware (Why Join?)
  • Login
  • US Flag 
08:08PM EDT


 

Airport Tracker/Info


-or-


 

Live Flight TrackerFlight Track Log ✈ SWA2412 ✈ 14-May-2014 ✈ KBWI - KMHT

Flight Track Log - Related Links

Times and Time Zones

All times are in EDT time to prevent confusion due to time zone crossing. See the SWA2412 flight status page for this flight to view local times or setup timezone preferences in your user account.

Time Position Orientation Groundspeed Altitude Reporting Facility
EDT Latitude Longitude Course Direction KTS MPH feet Rate Location/Type
08:34AM 39.1603 -76.4589 93° East 222 255 5,900  Level Washington Center
08:35AM 39.1547 -76.3544 94° East 262 302 9,500 3,120 Climbing Washington Center
08:36AM 39.1514 -76.2392 92° East 294 338 12,100 2,880 Climbing Washington Center
08:37AM 39.1664 -76.1136 81° East 343 395 15,300 2,280 Climbing Washington Center
08:38AM 39.1817 -75.9744 82° East 364 419 16,700 1,680 Climbing Washington Center
08:39AM 39.2278 -75.8356 67° East 402 463 18,700 2,100 Climbing Washington Center
08:40AM 39.3133 -75.7258 45° Northeast 407 468 20,900 2,100 Climbing Washington Center
08:41AM 39.4011 -75.6131 45° Northeast 425 489 23,000 2,400 Climbing Washington Center
08:42AM 39.4886 -75.5003 45° Northeast 435 501 25,900 2,460 Climbing Washington Center
08:43AM 39.5717 -75.3897 46° Northeast 435 501 27,900 1,980 Climbing Washington Center
08:45AM 39.7047 -75.2097 46° Northeast 433 498 31,300 1,740 Climbing New York Center
08:46AM 39.7753 -75.1061 48° Northeast 428 493 32,600 1,560 Climbing New York Center
08:47AM 39.8547 -74.9892 48° Northeast 428 493 34,500 1,440 Climbing New York Center
08:48AM 39.9356 -74.8858 44° Northeast 417 480 35,500 960 Climbing New York Center
08:49AM 40.0478 -74.8328 20° North 429 494 36,500 720 Climbing New York Center
08:50AM 40.1658 -74.7908 15° North 408 470 37,000 240 Climbing New York Center
08:51AM 40.2883 -74.7436 16° North 429 494 37,000  Level New York Center
08:52AM 40.4108 -74.6989 16° North 447 514 37,000  Level New York Center
08:53AM 40.5269 -74.6564 16° North 447 514 37,000  Level New York Center
08:54AM 40.6469 -74.6139 15° North 441 507 37,000  Level New York Center
08:55AM 40.7653 -74.5658 17° North 441 507 37,000  Level New York Center
08:56AM 40.9508 -74.4981 15° North 447 514 37,000  Level Boston Center
08:57AM 41.0719 -74.4531 16° North 449 517 37,000  Level Boston Center
08:58AM 41.1942 -74.4056 16° North 456 525 37,000  Level Boston Center
08:59AM 41.3306 -74.3547 16° North 459 528 37,000  Level Boston Center
09:00AM 41.4528 -74.3075 16° North 459 528 37,000 -300 Level Boston Center
09:01AM 41.5781 -74.2597 16° North 463 533 36,400 -1,260 Descending Boston Center
09:02AM 41.7031 -74.2128 16° North 468 539 34,500 -1,740 Descending Boston Center
09:03AM 41.8125 -74.1292 30° Northeast 452 520 33,000 -1,380 Descending Boston Center
09:05AM 41.8856 -73.9936 54° Northeast 444 511 31,800 -1,260 Descending Boston Center
09:06AM 41.9622 -73.8556 53° Northeast 454 522 30,500 -1,440 Descending Boston Center
09:07AM 42.0386 -73.7156 54° Northeast 459 528 28,900 -1,800 Descending Boston Center
09:08AM 42.1292 -73.5489 54° Northeast 468 539 26,900 -1,920 Descending Boston Center
09:09AM 42.2067 -73.4067 54° Northeast 469 540 25,100 -1,740 Descending Boston Center
09:10AM 42.2881 -73.2531 54° Northeast 477 549 23,500 -960 Descending Boston Center
09:12AM 42.4336 -72.9781 54° Northeast 456 525 22,300 -1,080 Descending Boston Center
09:13AM 42.5092 -72.8361 54° Northeast 458 527 20,300 -1,680 Descending Boston Center
09:14AM 42.5839 -72.6903 55° Northeast 428 493 19,000 -840 Descending Boston Center
09:15AM 42.6247 -72.5658 66° East 415 478 18,600 -1,560 Descending Boston Center
09:16AM 42.6711 -72.4203 67° East 415 478 15,900 -3,300 Descending Boston Center
09:17AM 42.7197 -72.2575 68° East 397 457 12,000 -2,760 Descending Boston Center
09:18AM 42.7614 -72.1250 67° East 384 442 10,400 -1,260 Descending Boston Center
09:19AM 42.7950 -72.0128 68° East 318 366 9,500 -1,320 Descending Boston Center
09:20AM 42.8253 -71.9056 69° East 303 349 7,800 -1,860 Descending Boston Center
09:21AM 42.7972 -71.7897 108° East 301 346 5,800 -1,560 Descending Boston Center
09:22AM 42.8019 -71.6900 86° East 269 310 4,700 -1,080 Descending Boston Center
09:23AM 42.8208 -71.6033 73° East 239 275 3,700 -1,200 Descending Boston Center
09:24AM 42.8550 -71.5392 54° Northeast 209 241 2,300 -1,200 Descending Boston Center
09:25AM 42.8939 -71.4914 42° Northeast 174 200 1,300 -900 Descending Boston Center
09:26AM 42.9225 -71.4561 42° Northeast 145 167 500 -840 Descending Boston Center
09:28AM 42.9167 -71.4333 316° Northwest  Level FlightAware Approximate